Time;durP1;ratioP1;P1;durP2;ratioP2;P2;SDS_P1;SDS_P2;PMS_P1;PMS_P2;Temp;Humidity;BMP_temperature;BMP_pressure;BME280_temperature;BME280_humidity;BME280_pressure;Samples;Min_cycle;Max_cycle;Signal;HPM_P1;HPM_P2
2020/12/08 00:00:10;;;;;;;0.70;0.70;;;3.90;99.90;;;;;;5112830;28;20172;-68
2020/12/08 00:02:35;;;;;;;0.80;0.77;;;3.90;99.90;;;;;;5112724;28;20227;-69
2020/12/08 00:05:03;;;;;;;0.40;0.40;;;3.90;99.90;;;;;;5112498;28;20202;-69
2020/12/08 00:07:28;;;;;;;1.63;1.38;;;3.90;99.90;;;;;;5112555;28;20175;-68
2020/12/08 00:09:54;;;;;;;2.55;2.40;;;4.00;99.90;;;;;;5112667;28;20209;-69
2020/12/08 00:12:25;;;;;;;1.52;1.52;;;4.00;99.90;;;;;;5112372;28;20152;-68
2020/12/08 00:14:51;;;;;;;0.50;0.50;;;4.00;99.90;;;;;;5112327;28;20616;-68
2020/12/08 00:17:17;;;;;;;2.63;2.47;;;3.90;99.90;;;;;;5112339;28;20152;-68
2020/12/08 00:19:43;;;;;;;2.88;2.70;;;3.70;99.90;;;;;;5112237;28;20159;-69
2020/12/08 00:22:10;;;;;;;1.27;1.25;;;3.80;99.90;;;;;;5112253;28;20156;-69
2020/12/08 00:24:35;;;;;;;1.50;1.50;;;3.90;99.90;;;;;;5110780;28;20260;-68
2020/12/08 00:27:01;;;;;;;2.10;2.00;;;3.90;99.90;;;;;;5112192;28;20156;-69
2020/12/08 00:29:27;;;;;;;2.03;1.45;;;4.00;99.90;;;;;;5110713;28;20155;-69
2020/12/08 00:31:53;;;;;;;4.97;3.55;;;3.90;99.90;;;;;;5110730;28;20160;-68
2020/12/08 00:34:19;;;;;;;2.65;2.10;;;4.00;99.90;;;;;;5111979;28;20225;-68
2020/12/08 00:36:45;;;;;;;1.23;1.23;;;4.00;99.90;;;;;;5110960;28;20163;-69
2020/12/08 00:39:11;;;;;;;2.17;2.08;;;4.10;99.90;;;;;;5110360;28;20159;-68
2020/12/08 00:41:37;;;;;;;2.70;2.53;;;4.00;99.90;;;;;;5112086;28;20175;-68
2020/12/08 00:44:02;;;;;;;1.17;1.00;;;4.00;99.90;;;;;;5111615;28;20191;-68
2020/12/08 00:46:28;;;;;;;0.77;0.77;;;4.00;99.90;;;;;;5111913;28;20156;-69
2020/12/08 00:48:54;;;;;;;3.63;2.95;;;4.00;99.90;;;;;;5111600;28;20151;-69
2020/12/08 00:51:20;;;;;;;2.22;2.10;;;4.10;99.90;;;;;;5111687;28;20152;-68
2020/12/08 00:53:46;;;;;;;2.38;2.22;;;4.00;99.90;;;;;;5111642;28;20183;-69
2020/12/08 00:56:13;;;;;;;0.68;0.68;;;4.10;99.90;;;;;;5111704;28;20162;-68
2020/12/08 00:58:39;;;;;;;3.58;3.35;;;4.10;99.90;;;;;;5111607;28;20168;-69
2020/12/08 01:01:07;;;;;;;1.20;1.20;;;4.10;99.90;;;;;;5111456;28;20231;-68
2020/12/08 01:03:36;;;;;;;1.63;1.55;;;4.00;99.90;;;;;;5111386;28;20159;-68
2020/12/08 01:06:03;;;;;;;1.85;1.75;;;4.00;99.90;;;;;;5111411;28;20232;-68
2020/12/08 01:08:31;;;;;;;2.20;2.00;;;4.00;99.90;;;;;;5111359;28;20168;-69
2020/12/08 01:10:57;;;;;;;1.40;1.30;;;4.00;99.90;;;;;;5111435;28;20166;-68
2020/12/08 01:13:23;;;;;;;3.35;3.15;;;4.00;99.90;;;;;;5111322;28;20661;-69
2020/12/08 01:15:50;;;;;;;3.03;1.98;;;4.00;99.90;;;;;;5111217;28;20151;-69
2020/12/08 01:18:16;;;;;;;1.35;1.35;;;4.00;99.90;;;;;;5111121;28;20231;-69
2020/12/08 01:20:42;;;;;;;0.88;0.88;;;4.00;99.90;;;;;;5110982;28;20163;-67
2020/12/08 01:23:08;;;;;;;0.32;0.32;;;4.00;99.90;;;;;;5111003;28;20524;-68
2020/12/08 01:25:34;;;;;;;0.30;0.30;;;4.00;99.90;;;;;;5109580;28;20210;-69
2020/12/08 01:28:00;;;;;;;1.02;0.80;;;4.00;99.90;;;;;;5111074;28;20246;-68
2020/12/08 01:30:26;;;;;;;0.85;0.85;;;4.00;99.90;;;;;;5111050;28;20187;-68
2020/12/08 01:32:53;;;;;;;1.42;1.42;;;3.90;99.90;;;;;;5109566;28;20262;-69
2020/12/08 01:35:20;;;;;;;0.65;0.65;;;3.90;99.90;;;;;;5110796;28;20248;-68
2020/12/08 01:37:47;;;;;;;2.38;2.28;;;3.80;99.90;;;;;;5110635;28;20179;-68
2020/12/08 01:40:13;;;;;;;1.20;1.13;;;3.90;99.90;;;;;;5109064;28;20227;-68
2020/12/08 01:42:39;;;;;;;2.65;2.45;;;4.00;99.90;;;;;;5110637;28;20176;-68
2020/12/08 01:45:06;;;;;;;0.60;0.60;;;4.00;99.90;;;;;;5110373;28;20199;-68
2020/12/08 01:47:33;;;;;;;1.20;1.20;;;4.00;99.90;;;;;;5109045;28;20232;-68
2020/12/08 01:49:59;;;;;;;1.95;1.85;;;4.00;99.90;;;;;;5110389;28;20152;-68
2020/12/08 01:52:26;;;;;;;0.55;0.55;;;4.00;99.90;;;;;;5109188;28;20235;-69
2020/12/08 01:54:54;;;;;;;0.32;0.32;;;3.90;99.90;;;;;;5110313;28;20194;-68
2020/12/08 01:57:20;;;;;;;0.10;0.10;;;3.90;99.90;;;;;;5110347;28;20156;-68
2020/12/08 01:59:47;;;;;;;1.50;1.40;;;3.90;99.90;;;;;;5110327;28;20171;-68
2020/12/08 02:02:13;;;;;;;0.20;0.20;;;3.80;99.90;;;;;;5108914;28;20199;-69
2020/12/08 02:04:40;;;;;;;0.15;0.15;;;3.80;99.90;;;;;;5107071;28;20198;-68
2020/12/08 02:07:06;;;;;;;0.55;0.55;;;3.80;99.90;;;;;;5107023;28;20246;-68
2020/12/08 02:09:37;;;;;;;0.10;0.10;;;3.70;99.90;;;;;;5107331;28;20221;-68
2020/12/08 02:12:04;;;;;;;1.45;1.40;;;3.70;99.90;;;;;;5109505;28;20198;-68
2020/12/08 02:14:30;;;;;;;0.40;0.40;;;3.70;99.90;;;;;;5108527;28;20178;-70
2020/12/08 02:16:56;;;;;;;0.30;0.30;;;3.70;99.90;;;;;;5109940;28;20156;-70
2020/12/08 02:19:22;;;;;;;2.85;2.33;;;3.80;99.90;;;;;;5110059;28;20177;-67
2020/12/08 02:21:48;;;;;;;0.73;0.73;;;3.80;99.90;;;;;;5109761;28;20199;-70
2020/12/08 02:24:18;;;;;;;2.10;2.00;;;3.90;99.90;;;;;;5108548;28;20255;-69
2020/12/08 02:26:44;;;;;;;1.20;1.17;;;3.80;99.90;;;;;;5110012;28;20173;-69
2020/12/08 02:29:11;;;;;;;2.78;1.67;;;3.80;99.90;;;;;;5109993;28;20179;-69
2020/12/08 02:31:37;;;;;;;0.30;0.30;;;3.70;99.90;;;;;;5109592;28;20151;-69
2020/12/08 02:34:03;;;;;;;5.00;1.20;;;3.70;99.90;;;;;;5108502;28;20164;-69
2020/12/08 02:36:29;;;;;;;0.65;0.65;;;3.70;99.90;;;;;;5109846;28;20173;-69
2020/12/08 02:38:55;;;;;;;0.45;0.45;;;3.60;99.90;;;;;;5108409;28;20160;-69
2020/12/08 02:41:25;;;;;;;2.08;1.90;;;3.70;99.90;;;;;;5108155;28;20221;-69
2020/12/08 02:43:54;;;;;;;0.30;0.30;;;3.80;99.90;;;;;;5108544;28;20167;-70
2020/12/08 02:46:22;;;;;;;0.32;0.32;;;3.90;99.90;;;;;;5108343;28;20257;-70
2020/12/08 02:48:48;;;;;;;2.15;2.05;;;3.80;99.90;;;;;;5108401;28;20167;-68
2020/12/08 02:51:20;;;;;;;0.35;0.35;;;3.90;99.90;;;;;;5108205;28;20172;-68
2020/12/08 02:53:46;;;;;;;0.45;0.45;;;3.90;99.90;;;;;;5109466;28;20195;-69
2020/12/08 02:56:12;;;;;;;0.30;0.30;;;4.00;99.90;;;;;;5109648;28;20612;-69
2020/12/08 02:58:38;;;;;;;0.10;0.10;;;3.90;99.90;;;;;;5109477;28;20166;-69
2020/12/08 03:01:05;;;;;;;0.40;0.38;;;3.70;99.90;;;;;;5109219;28;20170;-69
2020/12/08 03:03:31;;;;;;;0.63;0.63;;;3.80;99.90;;;;;;5109239;28;20221;-69
2020/12/08 03:05:57;;;;;;;1.00;1.00;;;3.80;99.90;;;;;;5109448;28;20187;-68
2020/12/08 03:08:23;;;;;;;2.13;2.03;;;3.90;99.90;;;;;;5108100;28;20279;-69
2020/12/08 03:10:49;;;;;;;0.22;0.22;;;3.90;99.90;;;;;;5109421;28;20214;-69
2020/12/08 03:13:14;;;;;;;0.88;0.88;;;3.90;99.90;;;;;;5109101;28;20195;-68
2020/12/08 03:15:40;;;;;;;1.05;1.02;;;3.90;99.90;;;;;;5109446;28;20163;-68
2020/12/08 03:18:06;;;;;;;0.20;0.20;;;3.90;99.90;;;;;;5109360;28;20166;-68
2020/12/08 03:20:32;;;;;;;0.20;0.20;;;4.00;99.90;;;;;;5107941;28;20171;-69
2020/12/08 03:22:58;;;;;;;0.50;0.50;;;3.90;99.90;;;;;;5108963;28;20195;-69
2020/12/08 03:25:24;;;;;;;0.40;0.40;;;3.90;99.90;;;;;;5109180;28;20195;-68
2020/12/08 03:27:50;;;;;;;1.42;1.35;;;3.90;99.90;;;;;;5109163;28;20155;-68
2020/12/08 03:30:15;;;;;;;0.68;0.68;;;3.80;99.90;;;;;;5109127;28;20167;-69
2020/12/08 03:32:41;;;;;;;0.30;0.30;;;3.80;99.90;;;;;;5108239;28;20187;-69
2020/12/08 03:35:07;;;;;;;0.10;0.10;;;3.80;99.90;;;;;;5108657;28;20215;-69
2020/12/08 03:37:33;;;;;;;0.85;0.85;;;3.80;99.90;;;;;;5108909;28;20163;-68
2020/12/08 03:39:58;;;;;;;0.38;0.38;;;3.90;99.90;;;;;;5108635;28;20234;-68
2020/12/08 03:42:24;;;;;;;1.63;1.63;;;3.90;99.90;;;;;;5108932;28;20198;-69
2020/12/08 03:44:50;;;;;;;0.50;0.50;;;3.80;99.90;;;;;;5107630;28;20244;-69
2020/12/08 03:47:16;;;;;;;0.47;0.47;;;3.80;99.90;;;;;;5109145;28;20160;-68
2020/12/08 03:49:41;;;;;;;0.63;0.63;;;3.80;99.90;;;;;;5107549;28;20163;-69
2020/12/08 03:52:07;;;;;;;1.17;1.17;;;3.80;99.90;;;;;;5107461;28;20273;-69
2020/12/08 03:54:33;;;;;;;0.57;0.57;;;3.80;99.90;;;;;;5108679;28;20159;-69
2020/12/08 03:56:59;;;;;;;0.80;0.80;;;3.80;99.90;;;;;;5108974;28;20168;-70
2020/12/08 03:59:25;;;;;;;0.50;0.50;;;3.70;99.90;;;;;;5108992;28;20164;-68
2020/12/08 04:01:51;;;;;;;0.22;0.22;;;3.60;99.90;;;;;;5108513;28;20202;-69
2020/12/08 04:04:20;;;;;;;0.20;0.20;;;3.70;99.90;;;;;;5108867;28;20195;-69
2020/12/08 04:06:47;;;;;;;0.38;0.38;;;3.80;99.90;;;;;;5108592;28;20245;-69
2020/12/08 04:09:14;;;;;;;0.50;0.50;;;3.80;99.90;;;;;;5108678;28;20512;-68
2020/12/08 04:11:40;;;;;;;0.40;0.40;;;3.80;99.90;;;;;;5109481;28;20211;-69
2020/12/08 04:14:05;;;;;;;0.65;0.60;;;3.80;99.90;;;;;;5112469;28;20160;-69
2020/12/08 04:16:37;;;;;;;0.10;0.10;;;3.80;99.90;;;;;;5112119;28;20159;-69
2020/12/08 04:19:03;;;;;;;0.15;0.15;;;3.80;99.90;;;;;;5112251;28;20160;-68
2020/12/08 04:21:30;;;;;;;0.75;0.75;;;3.80;99.90;;;;;;5112091;28;20148;-69
2020/12/08 04:24:00;;;;;;;1.15;1.15;;;3.80;99.90;;;;;;5110901;28;20610;-68
2020/12/08 04:26:31;;;;;;;0.10;0.10;;;3.70;99.90;;;;;;5110665;28;20175;-69
2020/12/08 04:28:57;;;;;;;0.20;0.20;;;3.70;99.90;;;;;;5110807;28;20174;-69
2020/12/08 04:31:23;;;;;;;0.10;0.10;;;3.70;99.90;;;;;;5110580;28;20167;-69
2020/12/08 04:33:50;;;;;;;0.50;0.50;;;3.70;99.90;;;;;;5111689;28;20340;-68
2020/12/08 04:36:17;;;;;;;1.17;1.08;;;3.70;99.90;;;;;;5110878;28;20205;-69
2020/12/08 04:38:44;;;;;;;0.30;0.30;;;3.60;99.90;;;;;;5111949;28;20155;-69
2020/12/08 04:41:20;;;;;;;0.73;0.73;;;3.70;99.90;;;;;;5111654;28;20246;-69
2020/12/08 04:43:47;;;;;;;0.98;0.90;;;3.70;99.90;;;;;;5111853;28;20395;-68
2020/12/08 04:46:13;;;;;;;1.10;1.02;;;3.70;99.90;;;;;;5110259;28;20213;-68
2020/12/08 04:48:40;;;;;;;0.10;0.10;;;3.70;99.90;;;;;;5111673;28;20152;-69
2020/12/08 04:51:06;;;;;;;0.45;0.45;;;3.70;99.90;;;;;;5111847;28;20189;-69
2020/12/08 04:53:32;;;;;;;0.35;0.35;;;3.70;99.90;;;;;;5111701;28;20191;-69
2020/12/08 04:55:59;;;;;;;0.20;0.20;;;3.70;99.90;;;;;;5111697;28;20205;-69
2020/12/08 04:58:25;;;;;;;1.05;1.05;;;3.70;99.90;;;;;;5111622;28;20170;-69
2020/12/08 05:00:51;;;;;;;0.88;0.88;;;3.80;99.90;;;;;;5111739;28;20179;-69
2020/12/08 05:03:24;;;;;;;1.08;1.08;;;3.80;99.90;;;;;;5111364;28;20190;-68
2020/12/08 05:05:51;;;;;;;0.45;0.45;;;3.70;99.90;;;;;;5110164;28;20286;-69
2020/12/08 05:08:17;;;;;;;0.63;0.63;;;3.70;99.90;;;;;;5111498;28;20215;-69
2020/12/08 05:10:46;;;;;;;0.20;0.20;;;3.80;99.90;;;;;;5111328;28;20173;-68
2020/12/08 05:13:25;;;;;;;0.30;0.30;;;3.80;99.90;;;;;;5111106;28;20213;-68
2020/12/08 05:16:19;;;;;;;0.93;0.93;;;3.90;99.90;;;;;;5111337;28;20155;-68
2020/12/08 05:18:45;;;;;;;0.40;0.40;;;3.80;99.90;;;;;;5110942;28;20191;-68
2020/12/08 05:21:12;;;;;;;0.68;0.63;;;3.70;99.90;;;;;;5109786;28;20167;-68
2020/12/08 05:23:43;;;;;;;3.20;2.90;;;3.70;99.90;;;;;;5110554;28;20191;-68
2020/12/08 05:26:10;;;;;;;0.38;0.38;;;3.70;99.90;;;;;;5109437;28;20205;-69
2020/12/08 05:28:40;;;;;;;0.68;0.68;;;3.60;99.90;;;;;;5109635;28;20217;-69
2020/12/08 05:31:08;;;;;;;1.00;1.00;;;3.70;99.90;;;;;;5110951;28;20182;-69
2020/12/08 05:33:39;;;;;;;1.00;1.00;;;3.60;99.90;;;;;;5105795;28;20191;-68
2020/12/08 05:36:06;;;;;;;2.30;1.65;;;3.70;99.90;;;;;;5097923;28;20271;-69
2020/12/08 05:38:32;;;;;;;2.40;1.77;;;3.60;99.90;;;;;;5100364;28;20176;-69
2020/12/08 05:41:05;;;;;;;0.22;0.22;;;3.70;99.90;;;;;;5110333;28;20586;-68
2020/12/08 05:43:42;;;;;;;1.13;1.13;;;3.70;99.90;;;;;;5094492;28;20207;-69
2020/12/08 05:46:10;;;;;;;1.42;1.20;;;3.60;99.90;;;;;;5090214;28;20556;-69
2020/12/08 05:48:37;;;;;;;1.38;1.30;;;3.60;99.90;;;;;;5090121;28;20156;-69
2020/12/08 05:51:03;;;;;;;0.13;0.13;;;3.70;99.90;;;;;;5096283;28;20213;-70
2020/12/08 05:53:30;;;;;;;0.20;0.20;;;3.70;99.90;;;;;;5110475;28;20192;-70
2020/12/08 05:56:07;;;;;;;0.85;0.85;;;3.70;99.90;;;;;;5110518;28;20177;-70
2020/12/08 05:58:34;;;;;;;0.85;0.85;;;3.60;99.90;;;;;;5110420;28;20642;-70
2020/12/08 06:01:04;;;;;;;0.45;0.45;;;3.60;99.90;;;;;;5110483;28;20169;-69
2020/12/08 06:03:30;;;;;;;0.38;0.38;;;3.70;99.90;;;;;;5108942;28;20202;-69
2020/12/08 06:06:06;;;;;;;0.50;0.50;;;3.60;99.90;;;;;;5110287;28;20191;-69
2020/12/08 06:08:44;;;;;;;0.90;0.90;;;3.60;99.90;;;;;;5099090;28;20187;-70
2020/12/08 06:11:11;;;;;;;2.67;2.47;;;3.60;99.90;;;;;;5088542;28;20167;-69
2020/12/08 06:13:40;;;;;;;0.20;0.20;;;3.60;99.90;;;;;;5089812;28;20187;-70
2020/12/08 06:16:22;;;;;;;0.43;0.43;;;3.60;99.90;;;;;;5089886;28;20190;-68
2020/12/08 06:18:50;;;;;;;2.13;2.03;;;3.60;99.90;;;;;;5089630;28;20160;-69
2020/12/08 06:21:26;;;;;;;3.00;2.75;;;3.60;99.90;;;;;;5088555;28;20183;-70
2020/12/08 06:23:54;;;;;;;0.60;0.60;;;3.70;99.90;;;;;;5089861;28;20190;-69
2020/12/08 06:26:25;;;;;;;1.67;1.58;;;3.70;99.90;;;;;;5089538;28;20183;-69
2020/12/08 06:28:52;;;;;;;0.20;0.20;;;3.70;99.90;;;;;;5089640;28;20152;-69
2020/12/08 06:31:18;;;;;;;2.38;2.17;;;3.70;99.90;;;;;;5088336;28;20160;-68
2020/12/08 06:33:48;;;;;;;0.52;0.52;;;3.60;99.90;;;;;;5089008;28;20270;-69
2020/12/08 06:36:15;;;;;;;0.30;0.30;;;3.60;99.90;;;;;;5089143;28;20544;-68
2020/12/08 06:38:41;;;;;;;0.40;0.40;;;3.60;99.90;;;;;;5089632;28;20168;-68
2020/12/08 06:41:07;;;;;;;0.30;0.30;;;3.60;99.90;;;;;;5089337;28;20234;-69
2020/12/08 06:43:41;;;;;;;0.20;0.20;;;3.50;99.90;;;;;;5089326;28;20191;-69
2020/12/08 06:46:10;;;;;;;0.13;0.13;;;3.50;99.90;;;;;;5088091;28;20192;-69
2020/12/08 06:48:39;;;;;;;0.98;0.98;;;3.60;99.90;;;;;;5089450;28;20254;-69
2020/12/08 06:51:16;;;;;;;2.83;1.42;;;3.60;99.90;;;;;;5088009;28;20160;-69
2020/12/08 06:53:42;;;;;;;1.80;0.63;;;3.60;99.90;;;;;;5089294;28;20190;-69
2020/12/08 06:56:08;;;;;;;1.10;1.08;;;3.60;99.90;;;;;;5089333;28;20244;-69
2020/12/08 06:58:44;;;;;;;0.40;0.40;;;3.60;99.90;;;;;;5088873;28;20195;-68
2020/12/08 07:01:10;;;;;;;0.30;0.30;;;3.60;99.90;;;;;;5100165;28;20209;-69
2020/12/08 07:03:38;;;;;;;1.55;1.50;;;3.50;99.90;;;;;;5094526;28;20207;-69
2020/12/08 07:06:04;;;;;;;3.05;2.72;;;3.50;99.90;;;;;;5105761;28;20523;-69
2020/12/08 07:08:31;;;;;;;0.88;0.88;;;3.50;99.90;;;;;;5092877;28;20172;-69
2020/12/08 07:10:57;;;;;;;0.30;0.30;;;3.60;99.90;;;;;;5092941;28;20192;-66
2020/12/08 07:13:23;;;;;;;0.35;0.35;;;3.50;99.90;;;;;;5103269;28;20201;-69
2020/12/08 07:15:49;;;;;;;3.45;3.25;;;3.50;99.90;;;;;;5109395;28;20531;-70
2020/12/08 07:18:14;;;;;;;1.13;1.13;;;3.60;99.90;;;;;;5106189;28;20216;-69
2020/12/08 07:20:43;;;;;;;0.20;0.20;;;3.60;99.90;;;;;;5088867;28;20196;-69
2020/12/08 07:23:10;;;;;;;0.38;0.38;;;3.60;99.90;;;;;;5089351;28;20157;-69
2020/12/08 07:25:37;;;;;;;0.68;0.68;;;3.60;99.90;;;;;;5087713;28;20211;-69
2020/12/08 07:28:03;;;;;;;0.22;0.22;;;3.60;99.90;;;;;;5102397;28;20163;-68
2020/12/08 07:30:31;;;;;;;0.68;0.68;;;3.60;99.90;;;;;;5108942;28;20179;-70
2020/12/08 07:33:09;;;;;;;0.75;0.75;;;3.60;99.90;;;;;;5107814;28;20191;-70
2020/12/08 07:35:36;;;;;;;0.70;0.70;;;3.60;99.90;;;;;;5109182;28;20156;-69
2020/12/08 07:38:03;;;;;;;0.38;0.38;;;3.60;99.90;;;;;;5109088;28;20151;-69
2020/12/08 07:40:37;;;;;;;0.85;0.85;;;3.60;99.90;;;;;;5108641;28;20292;-69
2020/12/08 07:43:03;;;;;;;0.88;0.88;;;3.60;99.90;;;;;;5108553;28;20160;-68
2020/12/08 07:45:40;;;;;;;0.93;0.90;;;3.50;99.90;;;;;;5092642;28;20199;-69
2020/12/08 07:48:06;;;;;;;0.30;0.30;;;3.60;99.90;;;;;;5092469;28;20167;-69
2020/12/08 07:50:33;;;;;;;1.77;1.67;;;3.60;99.90;;;;;;5092020;28;20183;-69
2020/12/08 07:53:10;;;;;;;1.52;1.48;;;3.60;99.90;;;;;;5090967;28;20168;-69
2020/12/08 07:55:41;;;;;;;0.73;0.73;;;3.50;99.90;;;;;;5092358;28;20223;-69
2020/12/08 07:58:08;;;;;;;0.28;0.28;;;3.40;99.90;;;;;;5090949;28;20566;-69
2020/12/08 08:00:35;;;;;;;1.33;1.27;;;3.40;99.90;;;;;;5090644;28;20207;-69
2020/12/08 08:03:01;;;;;;;0.57;0.57;;;3.40;99.90;;;;;;5109364;28;20209;-69
2020/12/08 08:05:27;;;;;;;2.70;2.53;;;3.40;99.90;;;;;;5110980;28;20183;-69
2020/12/08 08:07:53;;;;;;;2.25;2.15;;;3.40;99.90;;;;;;5112052;28;20163;-69
2020/12/08 08:10:19;;;;;;;0.30;0.30;;;3.40;99.90;;;;;;5111516;28;20185;-69
2020/12/08 08:12:45;;;;;;;1.30;1.20;;;3.40;99.90;;;;;;5111809;28;20187;-70
2020/12/08 08:15:11;;;;;;;1.85;1.75;;;3.40;99.90;;;;;;5112248;28;20181;-70
2020/12/08 08:17:36;;;;;;;0.55;0.55;;;3.40;99.90;;;;;;5108457;28;20168;-69
2020/12/08 08:20:04;;;;;;;1.90;1.85;;;3.40;99.90;;;;;;5110908;28;20163;-69
2020/12/08 08:22:30;;;;;;;0.85;0.85;;;3.40;99.90;;;;;;5111930;28;20215;-69
2020/12/08 08:24:57;;;;;;;0.43;0.43;;;3.50;99.90;;;;;;5112080;28;20187;-69
2020/12/08 08:27:23;;;;;;;0.90;0.90;;;3.60;99.90;;;;;;5111938;28;20156;-69
2020/12/08 08:29:49;;;;;;;0.50;0.50;;;3.80;99.90;;;;;;5110053;28;20247;-69
2020/12/08 08:32:15;;;;;;;4.47;2.15;;;3.80;99.90;;;;;;5111831;28;20247;-69
2020/12/08 08:34:41;;;;;;;0.50;0.50;;;3.80;99.90;;;;;;5112091;28;20615;-69
2020/12/08 08:37:07;;;;;;;1.08;1.08;;;3.70;99.90;;;;;;5112021;28;20159;-69
2020/12/08 08:39:33;;;;;;;1.50;1.40;;;3.80;99.90;;;;;;5110342;28;20215;-69
2020/12/08 08:41:59;;;;;;;0.75;0.75;;;3.60;99.90;;;;;;5110183;28;20277;-69
2020/12/08 08:44:25;;;;;;;0.38;0.38;;;3.60;99.90;;;;;;5111732;28;20171;-70
2020/12/08 08:46:51;;;;;;;0.63;0.63;;;3.70;99.90;;;;;;5111553;28;20159;-69
2020/12/08 08:49:17;;;;;;;1.50;1.40;;;3.90;99.90;;;;;;5111707;28;20167;-69
2020/12/08 08:51:48;;;;;;;1.52;1.10;;;4.00;99.90;;;;;;5111401;28;20595;-69
2020/12/08 08:54:17;;;;;;;1.60;1.55;;;3.90;99.90;;;;;;5111576;28;20160;-69
2020/12/08 08:56:43;;;;;;;1.60;1.52;;;4.00;99.90;;;;;;5111081;28;20223;-70
2020/12/08 08:59:09;;;;;;;1.63;1.63;;;3.90;99.90;;;;;;5110985;28;20171;-70
2020/12/08 09:01:36;;;;;;;1.75;1.40;;;3.90;99.90;;;;;;5111528;28;20198;-69
2020/12/08 09:04:03;;;;;;;1.75;1.65;;;4.00;99.90;;;;;;5111513;28;20624;-69
2020/12/08 09:06:30;;;;;;;0.65;0.65;;;4.10;99.90;;;;;;5111126;28;20232;-70
2020/12/08 09:08:59;;;;;;;0.32;0.32;;;4.20;99.90;;;;;;5110286;28;20195;-69
2020/12/08 09:11:26;;;;;;;1.75;1.65;;;4.20;99.90;;;;;;5111170;28;20148;-70
2020/12/08 09:13:53;;;;;;;2.13;2.00;;;4.20;99.90;;;;;;5109826;28;20171;-69
2020/12/08 09:16:22;;;;;;;1.10;1.10;;;4.20;99.90;;;;;;5111195;28;20181;-69
2020/12/08 09:18:49;;;;;;;0.57;0.57;;;4.20;99.90;;;;;;5109829;28;20186;-69
2020/12/08 09:21:14;;;;;;;1.23;1.23;;;4.30;99.90;;;;;;5110756;28;20183;-70
2020/12/08 09:23:40;;;;;;;0.85;0.85;;;4.30;99.90;;;;;;5110693;28;20159;-68
2020/12/08 09:26:06;;;;;;;0.95;0.95;;;4.30;99.90;;;;;;5110939;28;20250;-69
2020/12/08 09:28:32;;;;;;;1.58;1.15;;;4.30;99.90;;;;;;5110895;28;20181;-69
2020/12/08 09:30:58;;;;;;;1.40;1.30;;;4.40;99.90;;;;;;5110817;28;20147;-69
2020/12/08 09:33:27;;;;;;;2.28;2.17;;;4.50;99.90;;;;;;5107217;28;20223;-69
2020/12/08 09:35:54;;;;;;;0.65;0.65;;;4.50;99.90;;;;;;5110707;28;20239;-69
2020/12/08 09:38:20;;;;;;;1.48;1.38;;;4.30;99.90;;;;;;5093873;28;20164;-69
2020/12/08 09:40:46;;;;;;;1.75;1.65;;;4.20;99.90;;;;;;5090108;28;20731;-69
2020/12/08 09:43:11;;;;;;;0.73;0.73;;;4.20;99.90;;;;;;5090452;28;20219;-69
2020/12/08 09:45:38;;;;;;;1.13;1.13;;;4.20;99.90;;;;;;5090360;28;20191;-70
2020/12/08 09:48:05;;;;;;;0.85;0.85;;;4.20;99.90;;;;;;5089867;28;20187;-69
2020/12/08 09:50:31;;;;;;;2.85;1.00;;;4.10;99.90;;;;;;5090108;28;20156;-71
2020/12/08 09:52:57;;;;;;;0.85;0.85;;;4.10;99.90;;;;;;5089838;28;20195;-69
2020/12/08 09:55:23;;;;;;;0.68;0.68;;;4.00;99.90;;;;;;5090116;28;20164;-69
2020/12/08 09:57:49;;;;;;;0.22;0.22;;;3.90;99.90;;;;;;5088592;28;20239;-70
2020/12/08 10:00:15;;;;;;;0.43;0.43;;;3.90;99.90;;;;;;5090001;28;20191;-69
2020/12/08 10:02:40;;;;;;;1.77;1.67;;;4.00;99.90;;;;;;5097615;28;20282;-69
2020/12/08 10:05:06;;;;;;;3.65;3.35;;;4.10;99.90;;;;;;5109702;28;20639;-69
2020/12/08 10:07:32;;;;;;;0.50;0.50;;;4.10;99.90;;;;;;5099295;28;20200;-70
2020/12/08 10:09:58;;;;;;;3.38;3.17;;;4.10;99.90;;;;;;5088705;28;20156;-69
2020/12/08 10:12:24;;;;;;;0.10;0.10;;;4.10;99.90;;;;;;5088139;28;20163;-69
2020/12/08 10:14:50;;;;;;;1.33;1.33;;;4.10;99.90;;;;;;5089758;28;20168;-69
2020/12/08 10:17:17;;;;;;;0.30;0.30;;;4.20;99.90;;;;;;5089510;28;20188;-70
2020/12/08 10:19:44;;;;;;;0.10;0.10;;;4.20;99.90;;;;;;5089776;28;20163;-69
2020/12/08 10:22:12;;;;;;;3.33;1.65;;;4.20;99.90;;;;;;5089581;28;20179;-69
2020/12/08 10:24:39;;;;;;;0.35;0.35;;;4.20;99.90;;;;;;5089654;28;20538;-70
2020/12/08 10:27:06;;;;;;;1.48;1.48;;;4.30;99.90;;;;;;5089788;28;20247;-70
2020/12/08 10:29:33;;;;;;;2.15;2.05;;;4.20;99.90;;;;;;5088027;28;20167;-69
2020/12/08 10:31:59;;;;;;;0.55;0.50;;;4.20;99.90;;;;;;5088076;28;20164;-69
2020/12/08 10:34:25;;;;;;;2.60;2.50;;;4.30;99.90;;;;;;5089357;28;20235;-69
2020/12/08 10:36:51;;;;;;;0.55;0.55;;;4.40;99.90;;;;;;5088027;28;20663;-69
2020/12/08 10:39:17;;;;;;;0.30;0.30;;;4.40;99.90;;;;;;5087617;28;20164;-69
2020/12/08 10:41:43;;;;;;;1.35;1.35;;;4.50;99.90;;;;;;5089318;28;20160;-69
2020/12/08 10:44:09;;;;;;;0.98;0.98;;;4.70;99.90;;;;;;5088009;28;20175;-69
2020/12/08 10:46:36;;;;;;;1.38;1.38;;;4.80;99.90;;;;;;5089576;28;20223;-69
2020/12/08 10:49:06;;;;;;;0.70;0.70;;;4.90;99.90;;;;;;5088930;28;20313;-70
2020/12/08 10:51:32;;;;;;;0.50;0.50;;;5.00;99.90;;;;;;5098916;28;20186;-69
2020/12/08 10:53:57;;;;;;;0.52;0.52;;;5.20;99.90;;;;;;5108958;28;20185;-69
2020/12/08 10:56:24;;;;;;;0.75;0.75;;;5.20;99.90;;;;;;5107524;28;20238;-69
2020/12/08 10:58:54;;;;;;;0.43;0.43;;;5.30;99.90;;;;;;5109149;28;20186;-69
2020/12/08 11:01:25;;;;;;;0.65;0.65;;;5.30;99.90;;;;;;5109460;28;20620;-68
2020/12/08 11:03:51;;;;;;;1.00;1.00;;;5.40;99.90;;;;;;5109354;28;20174;-69
2020/12/08 11:06:26;;;;;;;2.03;1.90;;;5.20;99.90;;;;;;5109275;28;20199;-67
2020/12/08 11:08:52;;;;;;;1.08;1.08;;;5.20;99.90;;;;;;5109089;28;20558;-69
2020/12/08 11:11:25;;;;;;;1.10;1.10;;;5.10;99.90;;;;;;5109274;28;20218;-69
2020/12/08 11:13:52;;;;;;;0.30;0.30;;;5.10;99.90;;;;;;5109508;28;20510;-69
2020/12/08 11:16:19;;;;;;;0.63;0.63;;;5.00;99.90;;;;;;5109133;28;20162;-69
2020/12/08 11:18:46;;;;;;;2.20;1.40;;;5.00;99.90;;;;;;5109030;28;20187;-68
2020/12/08 11:21:12;;;;;;;2.25;2.17;;;4.90;99.90;;;;;;5110905;28;20166;-68
2020/12/08 11:23:40;;;;;;;1.15;1.15;;;4.90;99.90;;;;;;5113416;28;20174;-68
2020/12/08 11:26:13;;;;;;;0.68;0.68;;;4.80;99.90;;;;;;5113218;28;20183;-70
2020/12/08 11:28:39;;;;;;;2.63;1.65;;;4.80;99.90;;;;;;5111794;28;20198;-69
2020/12/08 11:31:06;;;;;;;2.08;1.95;;;4.80;99.90;;;;;;5113278;28;20163;-68
2020/12/08 11:33:32;;;;;;;1.13;1.13;;;5.00;99.90;;;;;;5111744;28;20300;-69
2020/12/08 11:35:58;;;;;;;0.45;0.45;;;5.00;99.90;;;;;;5111894;28;20217;-69
2020/12/08 11:38:24;;;;;;;1.17;1.00;;;5.00;99.90;;;;;;5112933;28;20191;-69
2020/12/08 11:40:50;;;;;;;1.02;1.02;;;4.90;99.90;;;;;;5112919;28;20277;-69
2020/12/08 11:43:16;;;;;;;0.90;0.90;;;4.90;99.90;;;;;;5113010;28;20187;-69
2020/12/08 11:45:42;;;;;;;2.90;1.55;;;4.90;99.90;;;;;;5112911;28;20184;-68
2020/12/08 11:48:08;;;;;;;1.13;1.02;;;5.00;99.90;;;;;;5112591;28;20187;-69
2020/12/08 11:50:34;;;;;;;0.40;0.40;;;4.90;99.90;;;;;;5111604;28;20655;-69
2020/12/08 11:53:00;;;;;;;0.57;0.57;;;5.00;99.90;;;;;;5112604;28;20159;-68
2020/12/08 11:55:26;;;;;;;0.50;0.50;;;4.90;99.90;;;;;;5112171;28;20258;-68
2020/12/08 11:57:52;;;;;;;0.30;0.30;;;4.90;99.90;;;;;;5112606;28;20164;-69
2020/12/08 12:00:18;;;;;;;0.30;0.30;;;5.00;99.90;;;;;;5112564;28;20167;-68
2020/12/08 12:02:44;;;;;;;1.63;1.52;;;5.00;99.90;;;;;;5112552;28;20631;-70
2020/12/08 12:05:10;;;;;;;0.20;0.20;;;4.90;99.90;;;;;;5112425;28;20199;-69
2020/12/08 12:07:35;;;;;;;0.65;0.65;;;4.90;99.90;;;;;;5112435;28;20210;-69
2020/12/08 12:10:01;;;;;;;1.08;0.73;;;4.80;99.90;;;;;;5112346;28;20596;-69
2020/12/08 12:12:27;;;;;;;1.02;1.02;;;4.80;99.90;;;;;;5112255;28;20156;-68
2020/12/08 12:14:53;;;;;;;1.17;1.17;;;4.60;99.90;;;;;;5112246;28;20151;-68
2020/12/08 12:17:19;;;;;;;0.85;0.85;;;4.50;99.90;;;;;;5112381;28;20159;-69
2020/12/08 12:19:45;;;;;;;0.30;0.30;;;4.60;99.90;;;;;;5112227;28;20275;-69
2020/12/08 12:22:11;;;;;;;2.72;1.75;;;4.50;99.90;;;;;;5112221;28;20163;-69
2020/12/08 12:24:37;;;;;;;0.55;0.55;;;4.50;99.90;;;;;;5112077;28;20191;-69
2020/12/08 12:27:04;;;;;;;1.05;0.68;;;4.40;99.90;;;;;;5111894;28;20191;-69
2020/12/08 12:29:31;;;;;;;1.85;1.30;;;4.40;99.90;;;;;;5110612;28;20167;-69
2020/12/08 12:31:57;;;;;;;2.22;2.13;;;4.30;99.90;;;;;;5109773;28;20651;-69
2020/12/08 12:34:23;;;;;;;0.68;0.68;;;4.30;99.90;;;;;;5111769;28;20156;-69
2020/12/08 12:36:50;;;;;;;0.98;0.98;;;4.20;99.90;;;;;;5111663;28;20213;-68
2020/12/08 12:39:16;;;;;;;0.57;0.57;;;4.10;99.90;;;;;;5111630;28;20159;-69
2020/12/08 12:41:43;;;;;;;0.85;0.85;;;4.10;99.90;;;;;;5110514;28;20158;-70
2020/12/08 12:44:09;;;;;;;2.17;2.08;;;4.10;99.90;;;;;;5111607;28;20191;-69
2020/12/08 12:46:36;;;;;;;1.70;1.63;;;4.20;99.90;;;;;;5110124;28;20190;-69
2020/12/08 12:49:02;;;;;;;1.15;1.15;;;4.30;99.90;;;;;;5111792;28;20208;-69
2020/12/08 12:51:30;;;;;;;1.58;1.48;;;4.30;99.90;;;;;;5110148;28;20190;-69
2020/12/08 12:53:58;;;;;;;2.72;2.50;;;4.30;99.90;;;;;;5111628;28;20187;-69
2020/12/08 12:56:25;;;;;;;3.15;2.97;;;4.30;99.90;;;;;;5110194;28;20174;-69